Viterbo, Italia

10:40 AM CEST del 25 Ottobre 2014 (GMT +0200)
viterbo | Change Station
CLOSE
Current Station
Stazione meteo personale
Location: Viterbo, LAZIO
Altitudine: 1170 ft
Stazioni meteo nelle vicinanze

Alt. 1170 ft 42.42 °N, 12.11 °E | Updated 14 minutes ago

Clear
Sereno
55.2 °F
Sembra 55.2 °F
N
1.0
Vento Variabile Vento da NNE

Oggi
Massima -- | Minima -- °F
--% Possibilità di precip.
Ieri
Massima -- | Minima -- °F
Precip. -- in
7:36 AM 6:14 PM
Luna nuova, 2% visible
Pressione 30.01 in
Visibilità -9999.0 miglia
Nuvole
Punto di rugiada 44 °F
Umidità 67%
Piovosità 0.00 in
Spessore del manto nevoso Non disponibile.
Raggi UV Non disponibile.
Polline Non disponibile.
Qualità dell'aria Non disponibile.
Flu Activity Non disponibile.
SPECI LIQN 250810Z 13005KT CAVOK 13/06 Q1016

More Conditions Fewer Conditions

Pressione 30.01 in
Visibilità -9999.0 miglia
Nuvole
Punto di rugiada 44 °F
Umidità 67%
Piovosità 0.00 in
Spessore del manto nevoso Non disponibile.
Raggi UV Non disponibile.
Polline Non disponibile.
Qualità dell'aria Non disponibile.
Flu Activity Non disponibile.
SPECI LIQN 250810Z 13005KT CAVOK 13/06 Q1016

More Conditions Fewer Conditions

10-Day Weather Forecast

Almanac

Astronomia

Oct. 25, 2014 Alba Tramonto
Ora attuale 07:36 CEST 18:14 CEST
Crepuscolo civile 07:07 CEST 18:43 CEST
Crepuscolo nautico 06:34 CEST 19:16 CEST
Crepuscolo astronomico 06:01 CEST 19:48 CEST
Luna 08:59 CEST 19:23 CEST
Estensione della luce visibile 11h 36m
Lunghezza del giorno
10h 38m
Tomorrow will be 2m 39s shorter.
Luna nuova, 2% of the Moon is Illuminated
Oggi
Luna nuova
Ott 30
Primo quarto
Nov 6
Luna piena
Nov 14
Ultimo quarto
Nov 22
Nuovo

Minime e massime di ieri

Massime Regione Minime Regione

Community

WunderPhotos

Upload Photos

1,764,791 foto caricate!

Nearby

Qualità dell'aria

Not available.

Profondità neve

Not available.

Attività sismica

Città  Distanza Mag. Data & Ora
Non sono state riportate attività sismiche nelle vicinanze.
Minimo Magnitudo Mostrato è 2.5.

Temperature delle acque costiere

Località Temperatura
Nessun dato dalle stazioni

Stazioni meteo nelle vicinanze